METAR Data

Data at: 1741 UTC 21 Nov 2018

METAR for:KPSM (Portsmouth Intl, NH, US)
Text:KPSM 211656Z 21007KT 10SM OVC045 01/M03 A2985 RMK AO2A SLP111 T00051026
Temperature: 0.5°C ( 33°F)
Dewpoint: -2.6°C ( 27°F) [RH = 80%]
Pressure (altimeter):29.85 inches Hg (1010.9 mb) [Sea level pressure: 1011.1 mb]
Winds:from the SSW (210 degrees) at 8 MPH (7 knots; 3.6 m/s)
Visibility:10 or more sm (16+ km)
Ceiling:4500 feet AGL
Clouds: overcast cloud deck at 4500 feet AGL